This is the latest recevied weather packets stored in our database for station/object GW1491. If no packets are shown the sender has not sent any weather packets the latest 10 day(s).
| Time | Temp. | Humidity | Pressure | Rain* | Wind** | Luminosity | Snow |
|---|---|---|---|---|---|---|---|
| 1777807091 | 1.11° C | 98% | 1018.9 hPa | 0 mm | - | - | - |
| 1777804936 | 0° C | 99% | 1018.6 hPa | 0 mm | - | - | - |
| 1777802774 | 0° C | 99% | 1018.2 hPa | 0 mm | - | - | - |
| 1777798814 | 0.56° C | 98% | 1018.2 hPa | 0 mm | - | - | - |
| 1777797760 | 0.56° C | 98% | 1018.2 hPa | 0 mm | - | - | - |
| 1777797038 | 0.56° C | 98% | 1018.2 hPa | 0 mm | - | - | - |
| 1777796692 | 0.56° C | 98% | 1018.2 hPa | 0 mm | - | - | - |
| 1777791984 | 1.11° C | 97% | 1017.9 hPa | 0 mm | - | - | - |
| 1777789092 | 1.11° C | 98% | 1018.2 hPa | 0 mm | - | - | - |
| 1777786957 | 1.67° C | 97% | 1018.2 hPa | 0 mm | - | - | - |
| 1777786583 | 1.67° C | 97% | 1018.2 hPa | 0 mm | - | - | - |
| 1777786251 | 1.67° C | 96% | 1018.2 hPa | 0 mm | - | - | - |
| 1777785535 | 1.67° C | 95% | 1018.2 hPa | 0 mm | - | - | - |
| 1777783725 | 2.22° C | 94% | 1018.2 hPa | 0 mm | - | - | - |
| 1777783362 | 2.22° C | 94% | 1018.6 hPa | 0 mm | - | - | - |
| 1777782283 | 2.78° C | 94% | 1018.6 hPa | 0 mm | - | - | - |
| 1777781903 | 2.78° C | 93% | 1018.2 hPa | 0 mm | - | - | - |
| 1777781183 | 2.78° C | 93% | 1018.2 hPa | 0 mm | - | - | - |
| 1777780492 | 2.78° C | 93% | 1018.6 hPa | 0 mm | - | - | - |
| 1777779736 | 2.78° C | 92% | 1018.2 hPa | 0 mm | - | - | - |
| 1777777224 | 3.33° C | 90% | 1018.6 hPa | 0 mm | - | - | - |
| 1777775778 | 2.78° C | 88% | 1018.6 hPa | 0 mm | - | - | - |
| 1777771814 | 4.44° C | 78% | 1017.9 hPa | 0 mm | - | - | - |
| 1777769324 | 5.56° C | 74% | 1017.9 hPa | 0 mm | - | - | - |
| 1777767495 | 6.11° C | 75% | 1017.9 hPa | 0 mm | - | - | - |
* Rain since midnight (hover to see other rain measurements)
** Current wind speed in m/s (hover to see current wind gust speed)